sensor_id;sensor_type;location;lat;lon;timestamp;pressure;altitude;pressure_sealevel;temperature;humidity
68077;BME280;54866;53.458;14.540;2023-02-12T00:01:51;102330.75;;;2.94;100.00
68077;BME280;54866;53.458;14.540;2023-02-12T00:04:21;102337.72;;;2.94;100.00
68077;BME280;54866;53.458;14.540;2023-02-12T00:06:50;102336.38;;;2.92;100.00
68077;BME280;54866;53.458;14.540;2023-02-12T00:09:19;102341.48;;;2.89;100.00
68077;BME280;54866;53.458;14.540;2023-02-12T00:11:49;102345.83;;;2.89;100.00
68077;BME280;54866;53.458;14.540;2023-02-12T00:14:18;102349.66;;;2.89;100.00
68077;BME280;54866;53.458;14.540;2023-02-12T00:16:47;102350.02;;;2.88;100.00
68077;BME280;54866;53.458;14.540;2023-02-12T00:19:17;102351.63;;;2.87;100.00
68077;BME280;54866;53.458;14.540;2023-02-12T00:21:46;102353.29;;;2.82;100.00
68077;BME280;54866;53.458;14.540;2023-02-12T00:24:15;102354.05;;;2.79;100.00
68077;BME280;54866;53.458;14.540;2023-02-12T00:26:44;102351.00;;;2.74;100.00
68077;BME280;54866;53.458;14.540;2023-02-12T00:29:15;102357.17;;;2.69;100.00
68077;BME280;54866;53.458;14.540;2023-02-12T00:31:44;102355.52;;;2.65;100.00
68077;BME280;54866;53.458;14.540;2023-02-12T00:34:14;102357.88;;;2.60;100.00
68077;BME280;54866;53.458;14.540;2023-02-12T00:36:43;102357.74;;;2.57;100.00
68077;BME280;54866;53.458;14.540;2023-02-12T00:39:12;102360.08;;;2.53;100.00
68077;BME280;54866;53.458;14.540;2023-02-12T00:41:42;102365.02;;;2.50;100.00
68077;BME280;54866;53.458;14.540;2023-02-12T00:44:11;102367.14;;;2.49;100.00
68077;BME280;54866;53.458;14.540;2023-02-12T00:46:40;102365.60;;;2.47;100.00
68077;BME280;54866;53.458;14.540;2023-02-12T00:49:10;102363.70;;;2.47;100.00
68077;BME280;54866;53.458;14.540;2023-02-12T00:51:39;102361.11;;;2.46;100.00
68077;BME280;54866;53.458;14.540;2023-02-12T00:54:08;102356.13;;;2.41;100.00
68077;BME280;54866;53.458;14.540;2023-02-12T00:56:37;102362.02;;;2.43;100.00
68077;BME280;54866;53.458;14.540;2023-02-12T00:59:07;102355.98;;;2.41;100.00
68077;BME280;54866;53.458;14.540;2023-02-12T01:01:36;102358.04;;;2.41;100.00
68077;BME280;54866;53.458;14.540;2023-02-12T01:04:06;102367.08;;;2.43;100.00
68077;BME280;54866;53.458;14.540;2023-02-12T01:06:35;102368.27;;;2.45;100.00
68077;BME280;54866;53.458;14.540;2023-02-12T01:09:04;102374.17;;;2.44;100.00
68077;BME280;54866;53.458;14.540;2023-02-12T01:11:34;102381.28;;;2.46;100.00
68077;BME280;54866;53.458;14.540;2023-02-12T01:14:03;102389.53;;;2.51;100.00
68077;BME280;54866;53.458;14.540;2023-02-12T01:16:33;102391.08;;;2.53;100.00
68077;BME280;54866;53.458;14.540;2023-02-12T01:19:04;102391.18;;;2.56;100.00
68077;BME280;54866;53.458;14.540;2023-02-12T01:21:34;102394.98;;;2.58;100.00
68077;BME280;54866;53.458;14.540;2023-02-12T01:24:04;102399.13;;;2.60;100.00
68077;BME280;54866;53.458;14.540;2023-02-12T01:26:34;102397.55;;;2.61;100.00
68077;BME280;54866;53.458;14.540;2023-02-12T01:29:05;102402.00;;;2.64;100.00
68077;BME280;54866;53.458;14.540;2023-02-12T01:31:37;102409.58;;;2.69;100.00
68077;BME280;54866;53.458;14.540;2023-02-12T01:34:08;102410.57;;;2.71;100.00
68077;BME280;54866;53.458;14.540;2023-02-12T01:36:38;102415.70;;;2.77;100.00
68077;BME280;54866;53.458;14.540;2023-02-12T01:39:09;102416.19;;;2.79;100.00
68077;BME280;54866;53.458;14.540;2023-02-12T01:41:41;102420.11;;;2.83;100.00
68077;BME280;54866;53.458;14.540;2023-02-12T01:44:15;102419.38;;;2.85;100.00
68077;BME280;54866;53.458;14.540;2023-02-12T01:46:46;102419.98;;;2.90;100.00
68077;BME280;54866;53.458;14.540;2023-02-12T01:49:23;102417.13;;;2.93;100.00
68077;BME280;54866;53.458;14.540;2023-02-12T01:51:57;102422.15;;;2.95;100.00
68077;BME280;54866;53.458;14.540;2023-02-12T01:54:29;102423.17;;;2.97;100.00
68077;BME280;54866;53.458;14.540;2023-02-12T01:56:59;102425.92;;;2.98;100.00
68077;BME280;54866;53.458;14.540;2023-02-12T01:59:29;102422.42;;;3.00;100.00
68077;BME280;54866;53.458;14.540;2023-02-12T02:01:59;102425.67;;;3.02;100.00
68077;BME280;54866;53.458;14.540;2023-02-12T02:04:30;102426.16;;;3.04;100.00
68077;BME280;54866;53.458;14.540;2023-02-12T02:07:03;102423.00;;;3.05;100.00
68077;BME280;54866;53.458;14.540;2023-02-12T02:09:35;102428.88;;;3.07;100.00
68077;BME280;54866;53.458;14.540;2023-02-12T02:12:05;102432.33;;;3.09;100.00
68077;BME280;54866;53.458;14.540;2023-02-12T02:14:55;102436.30;;;3.10;100.00
68077;BME280;54866;53.458;14.540;2023-02-12T02:17:25;102435.06;;;3.12;100.00
68077;BME280;54866;53.458;14.540;2023-02-12T02:20:11;102440.80;;;3.13;100.00
68077;BME280;54866;53.458;14.540;2023-02-12T02:22:48;102437.98;;;3.14;100.00
68077;BME280;54866;53.458;14.540;2023-02-12T02:28:51;102435.17;;;3.15;100.00
68077;BME280;54866;53.458;14.540;2023-02-12T02:31:28;102438.47;;;3.16;100.00
68077;BME280;54866;53.458;14.540;2023-02-12T02:34:06;102438.14;;;3.15;100.00
68077;BME280;54866;53.458;14.540;2023-02-12T02:36:43;102441.80;;;3.15;100.00
68077;BME280;54866;53.458;14.540;2023-02-12T02:39:21;102443.00;;;3.16;100.00
68077;BME280;54866;53.458;14.540;2023-02-12T02:41:58;102441.98;;;3.15;100.00
68077;BME280;54866;53.458;14.540;2023-02-12T02:44:34;102443.55;;;3.15;100.00
68077;BME280;54866;53.458;14.540;2023-02-12T02:47:08;102447.06;;;3.13;100.00
68077;BME280;54866;53.458;14.540;2023-02-12T02:49:43;102446.90;;;3.12;100.00
68077;BME280;54866;53.458;14.540;2023-02-12T02:52:18;102446.04;;;3.11;100.00
68077;BME280;54866;53.458;14.540;2023-02-12T02:54:52;102445.52;;;3.11;100.00
68077;BME280;54866;53.458;14.540;2023-02-12T02:57:27;102448.55;;;3.08;100.00
68077;BME280;54866;53.458;14.540;2023-02-12T03:00:04;102455.83;;;3.09;100.00
68077;BME280;54866;53.458;14.540;2023-02-12T03:02:38;102461.20;;;3.10;100.00
68077;BME280;54866;53.458;14.540;2023-02-12T03:05:11;102458.80;;;3.08;100.00
68077;BME280;54866;53.458;14.540;2023-02-12T03:07:46;102465.06;;;3.09;100.00
68077;BME280;54866;53.458;14.540;2023-02-12T03:10:22;102465.98;;;3.07;100.00
68077;BME280;54866;53.458;14.540;2023-02-12T03:12:57;102474.10;;;3.10;100.00
68077;BME280;54866;53.458;14.540;2023-02-12T03:15:32;102479.69;;;3.09;100.00
68077;BME280;54866;53.458;14.540;2023-02-12T03:18:06;102483.17;;;3.09;100.00
68077;BME280;54866;53.458;14.540;2023-02-12T03:20:42;102489.46;;;3.08;100.00
68077;BME280;54866;53.458;14.540;2023-02-12T03:23:16;102488.77;;;3.08;100.00
68077;BME280;54866;53.458;14.540;2023-02-12T03:25:52;102487.19;;;3.08;100.00
68077;BME280;54866;53.458;14.540;2023-02-12T03:28:27;102487.20;;;3.08;100.00
68077;BME280;54866;53.458;14.540;2023-02-12T03:31:05;102487.35;;;3.09;100.00
68077;BME280;54866;53.458;14.540;2023-02-12T03:33:43;102492.54;;;3.10;100.00
68077;BME280;54866;53.458;14.540;2023-02-12T03:36:28;102495.65;;;3.12;100.00
68077;BME280;54866;53.458;14.540;2023-02-12T03:39:09;102496.52;;;3.13;100.00
68077;BME280;54866;53.458;14.540;2023-02-12T03:41:42;102497.40;;;3.13;100.00
68077;BME280;54866;53.458;14.540;2023-02-12T03:44:20;102497.21;;;3.14;100.00
68077;BME280;54866;53.458;14.540;2023-02-12T03:46:58;102499.13;;;3.14;100.00
68077;BME280;54866;53.458;14.540;2023-02-12T03:49:33;102506.42;;;3.15;100.00
68077;BME280;54866;53.458;14.540;2023-02-12T03:52:05;102503.13;;;3.14;100.00
68077;BME280;54866;53.458;14.540;2023-02-12T03:54:34;102505.20;;;3.15;100.00
68077;BME280;54866;53.458;14.540;2023-02-12T03:57:07;102509.89;;;3.16;100.00
68077;BME280;54866;53.458;14.540;2023-02-12T03:59:39;102514.41;;;3.16;100.00
68077;BME280;54866;53.458;14.540;2023-02-12T04:02:09;102509.17;;;3.16;100.00
68077;BME280;54866;53.458;14.540;2023-02-12T04:04:39;102513.17;;;3.17;100.00
68077;BME280;54866;53.458;14.540;2023-02-12T04:07:08;102512.11;;;3.17;100.00
68077;BME280;54866;53.458;14.540;2023-02-12T04:09:37;102510.19;;;3.18;100.00
68077;BME280;54866;53.458;14.540;2023-02-12T04:12:20;102512.29;;;3.17;100.00
68077;BME280;54866;53.458;14.540;2023-02-12T04:15:03;102519.08;;;3.18;100.00
68077;BME280;54866;53.458;14.540;2023-02-12T04:17:43;102514.55;;;3.17;100.00
68077;BME280;54866;53.458;14.540;2023-02-12T04:20:22;102524.77;;;3.21;100.00
68077;BME280;54866;53.458;14.540;2023-02-12T04:23:01;102521.41;;;3.22;100.00
68077;BME280;54866;53.458;14.540;2023-02-12T04:25:47;102520.36;;;3.23;100.00
68077;BME280;54866;53.458;14.540;2023-02-12T04:28:26;102521.71;;;3.25;100.00
68077;BME280;54866;53.458;14.540;2023-02-12T04:31:00;102518.41;;;3.25;100.00
68077;BME280;54866;53.458;14.540;2023-02-12T04:33:36;102523.55;;;3.29;100.00
68077;BME280;54866;53.458;14.540;2023-02-12T04:36:12;102523.73;;;3.29;100.00
68077;BME280;54866;53.458;14.540;2023-02-12T04:38:47;102526.30;;;3.32;100.00
68077;BME280;54866;53.458;14.540;2023-02-12T04:41:20;102527.85;;;3.33;100.00
68077;BME280;54866;53.458;14.540;2023-02-12T04:43:50;102527.83;;;3.34;100.00
68077;BME280;54866;53.458;14.540;2023-02-12T04:46:19;102530.40;;;3.37;100.00
68077;BME280;54866;53.458;14.540;2023-02-12T04:48:53;102530.05;;;3.37;100.00
68077;BME280;54866;53.458;14.540;2023-02-12T04:51:23;102530.93;;;3.37;100.00
68077;BME280;54866;53.458;14.540;2023-02-12T04:53:53;102534.05;;;3.37;100.00
68077;BME280;54866;53.458;14.540;2023-02-12T04:56:22;102535.96;;;3.37;100.00
68077;BME280;54866;53.458;14.540;2023-02-12T04:58:52;102536.85;;;3.36;100.00
68077;BME280;54866;53.458;14.540;2023-02-12T05:01:24;102540.49;;;3.37;100.00
68077;BME280;54866;53.458;14.540;2023-02-12T05:03:54;102537.20;;;3.36;100.00
68077;BME280;54866;53.458;14.540;2023-02-12T05:06:23;102544.67;;;3.38;100.00
68077;BME280;54866;53.458;14.540;2023-02-12T05:08:54;102547.98;;;3.37;100.00
68077;BME280;54866;53.458;14.540;2023-02-12T05:11:23;102554.27;;;3.36;100.00
68077;BME280;54866;53.458;14.540;2023-02-12T05:13:53;102559.72;;;3.34;100.00
68077;BME280;54866;53.458;14.540;2023-02-12T05:16:22;102559.73;;;3.33;100.00
68077;BME280;54866;53.458;14.540;2023-02-12T05:18:52;102558.71;;;3.32;100.00
68077;BME280;54866;53.458;14.540;2023-02-12T05:21:21;102563.60;;;3.31;100.00
68077;BME280;54866;53.458;14.540;2023-02-12T05:23:51;102560.67;;;3.30;100.00
68077;BME280;54866;53.458;14.540;2023-02-12T05:26:21;102559.95;;;3.29;100.00
68077;BME280;54866;53.458;14.540;2023-02-12T05:28:51;102562.23;;;3.29;100.00
68077;BME280;54866;53.458;14.540;2023-02-12T05:31:20;102564.33;;;3.30;100.00
68077;BME280;54866;53.458;14.540;2023-02-12T05:33:50;102565.02;;;3.30;100.00
68077;BME280;54866;53.458;14.540;2023-02-12T05:36:21;102569.02;;;3.30;100.00
68077;BME280;54866;53.458;14.540;2023-02-12T05:38:52;102571.98;;;3.30;100.00
68077;BME280;54866;53.458;14.540;2023-02-12T05:41:25;102568.14;;;3.31;100.00
68077;BME280;54866;53.458;14.540;2023-02-12T05:43:54;102569.73;;;3.29;100.00
68077;BME280;54866;53.458;14.540;2023-02-12T05:46:24;102574.22;;;3.32;100.00
68077;BME280;54866;53.458;14.540;2023-02-12T05:48:53;102574.58;;;3.31;100.00
68077;BME280;54866;53.458;14.540;2023-02-12T05:51:25;102577.67;;;3.34;100.00
68077;BME280;54866;53.458;14.540;2023-02-12T05:53:57;102577.30;;;3.35;100.00
68077;BME280;54866;53.458;14.540;2023-02-12T05:56:29;102579.89;;;3.36;100.00
68077;BME280;54866;53.458;14.540;2023-02-12T05:59:01;102583.36;;;3.37;100.00
68077;BME280;54866;53.458;14.540;2023-02-12T06:01:33;102584.93;;;3.36;100.00
68077;BME280;54866;53.458;14.540;2023-02-12T06:04:07;102588.36;;;3.40;100.00
68077;BME280;54866;53.458;14.540;2023-02-12T06:06:37;102587.09;;;3.42;100.00
68077;BME280;54866;53.458;14.540;2023-02-12T06:09:09;102593.69;;;3.43;100.00
68077;BME280;54866;53.458;14.540;2023-02-12T06:11:39;102593.82;;;3.45;100.00
68077;BME280;54866;53.458;14.540;2023-02-12T06:14:12;102596.78;;;3.46;100.00
68077;BME280;54866;53.458;14.540;2023-02-12T06:16:44;102598.16;;;3.48;100.00
68077;BME280;54866;53.458;14.540;2023-02-12T06:19:15;102603.66;;;3.51;100.00
68077;BME280;54866;53.458;14.540;2023-02-12T06:21:45;102607.11;;;3.53;100.00
68077;BME280;54866;53.458;14.540;2023-02-12T06:24:16;102606.55;;;3.54;100.00
68077;BME280;54866;53.458;14.540;2023-02-12T06:26:47;102607.40;;;3.56;100.00
68077;BME280;54866;53.458;14.540;2023-02-12T06:29:18;102606.18;;;3.56;100.00
68077;BME280;54866;53.458;14.540;2023-02-12T06:31:47;102608.40;;;3.58;100.00
68077;BME280;54866;53.458;14.540;2023-02-12T06:34:17;102605.60;;;3.59;100.00
68077;BME280;54866;53.458;14.540;2023-02-12T06:36:47;102604.33;;;3.61;100.00
68077;BME280;54866;53.458;14.540;2023-02-12T06:39:17;102606.40;;;3.62;100.00
68077;BME280;54866;53.458;14.540;2023-02-12T06:41:46;102598.52;;;3.64;100.00
68077;BME280;54866;53.458;14.540;2023-02-12T06:44:15;102596.95;;;3.66;100.00
68077;BME280;54866;53.458;14.540;2023-02-12T06:46:45;102593.80;;;3.66;100.00
68077;BME280;54866;53.458;14.540;2023-02-12T06:49:14;102601.42;;;3.68;100.00
68077;BME280;54866;53.458;14.540;2023-02-12T06:51:43;102604.66;;;3.72;100.00
68077;BME280;54866;53.458;14.540;2023-02-12T06:54:17;102610.17;;;3.75;100.00
68077;BME280;54866;53.458;14.540;2023-02-12T06:56:46;102615.19;;;3.77;100.00
68077;BME280;54866;53.458;14.540;2023-02-12T06:59:17;102617.56;;;3.80;100.00
68077;BME280;54866;53.458;14.540;2023-02-12T07:01:46;102625.39;;;3.83;100.00
68077;BME280;54866;53.458;14.540;2023-02-12T07:04:15;102629.55;;;3.84;100.00
68077;BME280;54866;53.458;14.540;2023-02-12T07:06:44;102634.37;;;3.87;100.00
68077;BME280;54866;53.458;14.540;2023-02-12T07:09:14;102633.98;;;3.89;100.00
68077;BME280;54866;53.458;14.540;2023-02-12T07:11:43;102640.19;;;3.92;100.00
68077;BME280;54866;53.458;14.540;2023-02-12T07:14:15;102639.10;;;3.94;100.00
68077;BME280;54866;53.458;14.540;2023-02-12T07:16:45;102649.32;;;3.98;100.00
68077;BME280;54866;53.458;14.540;2023-02-12T07:19:14;102650.35;;;4.00;100.00
68077;BME280;54866;53.458;14.540;2023-02-12T07:21:44;102652.55;;;4.03;100.00
68077;BME280;54866;53.458;14.540;2023-02-12T07:24:14;102647.61;;;4.05;100.00
68077;BME280;54866;53.458;14.540;2023-02-12T07:26:45;102648.10;;;4.07;100.00
68077;BME280;54866;53.458;14.540;2023-02-12T07:29:14;102646.72;;;4.07;100.00
68077;BME280;54866;53.458;14.540;2023-02-12T07:31:44;102655.74;;;4.08;100.00
68077;BME280;54866;53.458;14.540;2023-02-12T07:34:13;102659.33;;;4.12;100.00
68077;BME280;54866;53.458;14.540;2023-02-12T07:36:42;102654.08;;;4.13;100.00
68077;BME280;54866;53.458;14.540;2023-02-12T07:39:13;102655.77;;;4.17;100.00
68077;BME280;54866;53.458;14.540;2023-02-12T07:41:42;102657.31;;;4.17;100.00
68077;BME280;54866;53.458;14.540;2023-02-12T07:44:12;102661.45;;;4.20;100.00
68077;BME280;54866;53.458;14.540;2023-02-12T07:46:44;102657.95;;;4.21;100.00
68077;BME280;54866;53.458;14.540;2023-02-12T07:49:15;102656.54;;;4.21;100.00
68077;BME280;54866;53.458;14.540;2023-02-12T07:51:45;102664.33;;;4.24;100.00
68077;BME280;54866;53.458;14.540;2023-02-12T07:54:15;102662.20;;;4.26;100.00
68077;BME280;54866;53.458;14.540;2023-02-12T07:56:45;102665.29;;;4.28;100.00
68077;BME280;54866;53.458;14.540;2023-02-12T07:59:16;102675.20;;;4.30;100.00
68077;BME280;54866;53.458;14.540;2023-02-12T08:01:48;102680.08;;;4.30;100.00
68077;BME280;54866;53.458;14.540;2023-02-12T08:04:19;102677.95;;;4.31;100.00
68077;BME280;54866;53.458;14.540;2023-02-12T08:06:50;102678.48;;;4.32;100.00
68077;BME280;54866;53.458;14.540;2023-02-12T08:09:22;102679.67;;;4.34;100.00
68077;BME280;54866;53.458;14.540;2023-02-12T08:11:52;102681.24;;;4.33;100.00
68077;BME280;54866;53.458;14.540;2023-02-12T08:14:22;102685.74;;;4.35;100.00
68077;BME280;54866;53.458;14.540;2023-02-12T08:16:52;102686.23;;;4.37;100.00
68077;BME280;54866;53.458;14.540;2023-02-12T08:19:21;102683.73;;;4.40;100.00
68077;BME280;54866;53.458;14.540;2023-02-12T08:21:51;102684.03;;;4.42;100.00
68077;BME280;54866;53.458;14.540;2023-02-12T08:24:21;102685.38;;;4.44;100.00
68077;BME280;54866;53.458;14.540;2023-02-12T08:26:51;102687.08;;;4.46;100.00
68077;BME280;54866;53.458;14.540;2023-02-12T08:29:22;102688.75;;;4.49;100.00
68077;BME280;54866;53.458;14.540;2023-02-12T08:31:56;102685.98;;;4.48;100.00
68077;BME280;54866;53.458;14.540;2023-02-12T08:34:24;102695.20;;;4.49;100.00
68077;BME280;54866;53.458;14.540;2023-02-12T08:36:55;102698.16;;;4.50;100.00
68077;BME280;54866;53.458;14.540;2023-02-12T08:39:26;102700.58;;;4.52;100.00
68077;BME280;54866;53.458;14.540;2023-02-12T08:41:57;102699.14;;;4.54;100.00
68077;BME280;54866;53.458;14.540;2023-02-12T08:44:26;102698.27;;;4.54;100.00
68077;BME280;54866;53.458;14.540;2023-02-12T08:46:56;102701.90;;;4.56;100.00
68077;BME280;54866;53.458;14.540;2023-02-12T08:49:29;102703.23;;;4.59;100.00
68077;BME280;54866;53.458;14.540;2023-02-12T08:51:59;102704.76;;;4.61;100.00
68077;BME280;54866;53.458;14.540;2023-02-12T08:54:31;102705.45;;;4.61;100.00
68077;BME280;54866;53.458;14.540;2023-02-12T08:57:01;102710.07;;;4.65;100.00
68077;BME280;54866;53.458;14.540;2023-02-12T08:59:31;102709.31;;;4.69;100.00
68077;BME280;54866;53.458;14.540;2023-02-12T09:02:01;102711.98;;;4.74;100.00
68077;BME280;54866;53.458;14.540;2023-02-12T09:04:35;102714.84;;;4.79;100.00
68077;BME280;54866;53.458;14.540;2023-02-12T09:07:05;102709.84;;;4.83;100.00
68077;BME280;54866;53.458;14.540;2023-02-12T09:09:34;102707.15;;;4.88;100.00
68077;BME280;54866;53.458;14.540;2023-02-12T09:12:04;102710.83;;;4.95;100.00
68077;BME280;54866;53.458;14.540;2023-02-12T09:14:33;102712.94;;;5.02;100.00
68077;BME280;54866;53.458;14.540;2023-02-12T09:17:03;102711.80;;;5.06;100.00
68077;BME280;54866;53.458;14.540;2023-02-12T09:19:32;102708.55;;;5.10;100.00
68077;BME280;54866;53.458;14.540;2023-02-12T09:22:01;102714.16;;;5.17;100.00
68077;BME280;54866;53.458;14.540;2023-02-12T09:24:31;102722.41;;;5.24;100.00
68077;BME280;54866;53.458;14.540;2023-02-12T09:27:00;102716.49;;;5.29;100.00
68077;BME280;54866;53.458;14.540;2023-02-12T09:29:29;102719.83;;;5.29;100.00
68077;BME280;54866;53.458;14.540;2023-02-12T09:31:58;102728.02;;;5.30;100.00
68077;BME280;54866;53.458;14.540;2023-02-12T09:34:29;102729.18;;;5.32;100.00
68077;BME280;54866;53.458;14.540;2023-02-12T09:36:59;102732.40;;;5.36;100.00
68077;BME280;54866;53.458;14.540;2023-02-12T09:39:28;102729.40;;;5.38;100.00
68077;BME280;54866;53.458;14.540;2023-02-12T09:42:16;102737.77;;;5.39;100.00
68077;BME280;54866;53.458;14.540;2023-02-12T09:44:53;102740.39;;;5.39;100.00
68077;BME280;54866;53.458;14.540;2023-02-12T09:47:28;102738.13;;;5.39;100.00
68077;BME280;54866;53.458;14.540;2023-02-12T09:50:09;102741.69;;;5.43;100.00
68077;BME280;54866;53.458;14.540;2023-02-12T09:52:41;102741.84;;;5.51;100.00
68077;BME280;54866;53.458;14.540;2023-02-12T09:55:15;102738.21;;;5.57;100.00
68077;BME280;54866;53.458;14.540;2023-02-12T09:57:45;102737.73;;;5.62;100.00
68077;BME280;54866;53.458;14.540;2023-02-12T10:00:21;102737.85;;;5.70;100.00
68077;BME280;54866;53.458;14.540;2023-02-12T10:02:53;102735.17;;;5.74;100.00
68077;BME280;54866;53.458;14.540;2023-02-12T10:05:25;102731.98;;;5.75;100.00
68077;BME280;54866;53.458;14.540;2023-02-12T10:10:53;102730.91;;;5.82;100.00
68077;BME280;54866;53.458;14.540;2023-02-12T10:13:38;102730.95;;;5.88;100.00
68077;BME280;54866;53.458;14.540;2023-02-12T10:16:16;102733.07;;;5.95;100.00
68077;BME280;54866;53.458;14.540;2023-02-12T10:19:11;102732.83;;;5.98;100.00
68077;BME280;54866;53.458;14.540;2023-02-12T10:21:55;102728.02;;;6.01;100.00
68077;BME280;54866;53.458;14.540;2023-02-12T10:24:40;102727.40;;;6.04;100.00
68077;BME280;54866;53.458;14.540;2023-02-12T10:27:18;102733.63;;;6.08;100.00
68077;BME280;54866;53.458;14.540;2023-02-12T10:29:49;102733.44;;;6.08;100.00
68077;BME280;54866;53.458;14.540;2023-02-12T10:32:25;102733.10;;;6.07;100.00
68077;BME280;54866;53.458;14.540;2023-02-12T10:34:58;102729.94;;;6.08;100.00
68077;BME280;54866;53.458;14.540;2023-02-12T10:37:34;102725.26;;;6.05;100.00
68077;BME280;54866;53.458;14.540;2023-02-12T10:40:15;102724.91;;;6.05;100.00
68077;BME280;54866;53.458;14.540;2023-02-12T10:42:48;102728.09;;;6.04;100.00
68077;BME280;54866;53.458;14.540;2023-02-12T10:45:20;102726.98;;;6.07;100.00
68077;BME280;54866;53.458;14.540;2023-02-12T10:47:53;102725.88;;;6.09;100.00
68077;BME280;54866;53.458;14.540;2023-02-12T10:50:40;102727.55;;;6.12;100.00
68077;BME280;54866;53.458;14.540;2023-02-12T10:53:17;102729.66;;;6.12;100.00
68077;BME280;54866;53.458;14.540;2023-02-12T10:55:48;102728.63;;;6.11;100.00
68077;BME280;54866;53.458;14.540;2023-02-12T10:58:22;102731.61;;;6.11;100.00
68077;BME280;54866;53.458;14.540;2023-02-12T11:00:58;102726.60;;;6.09;100.00
68077;BME280;54866;53.458;14.540;2023-02-12T11:03:32;102727.84;;;6.07;100.00
68077;BME280;54866;53.458;14.540;2023-02-12T11:06:17;102724.55;;;6.06;100.00
68077;BME280;54866;53.458;14.540;2023-02-12T11:08:47;102725.92;;;6.07;100.00
68077;BME280;54866;53.458;14.540;2023-02-12T11:11:20;102723.44;;;6.09;100.00
68077;BME280;54866;53.458;14.540;2023-02-12T11:13:57;102725.13;;;6.11;100.00
68077;BME280;54866;53.458;14.540;2023-02-12T11:16:30;102719.39;;;6.10;100.00
68077;BME280;54866;53.458;14.540;2023-02-12T11:19:02;102715.08;;;6.07;100.00
68077;BME280;54866;53.458;14.540;2023-02-12T11:21:33;102714.96;;;6.04;100.00
68077;BME280;54866;53.458;14.540;2023-02-12T11:24:28;102716.61;;;6.01;100.00
68077;BME280;54866;53.458;14.540;2023-02-12T11:27:23;102711.05;;;6.00;100.00
68077;BME280;54866;53.458;14.540;2023-02-12T11:30:13;102709.91;;;6.03;100.00
68077;BME280;54866;53.458;14.540;2023-02-12T11:32:43;102707.75;;;6.06;100.00
68077;BME280;54866;53.458;14.540;2023-02-12T11:35:16;102706.84;;;6.08;100.00
68077;BME280;54866;53.458;14.540;2023-02-12T11:37:54;102707.89;;;6.08;100.00
68077;BME280;54866;53.458;14.540;2023-02-12T11:40:27;102706.68;;;6.07;100.00
68077;BME280;54866;53.458;14.540;2023-02-12T11:42:59;102701.14;;;6.04;100.00
68077;BME280;54866;53.458;14.540;2023-02-12T11:45:32;102701.90;;;6.02;100.00
68077;BME280;54866;53.458;14.540;2023-02-12T11:48:03;102703.73;;;5.99;100.00
68077;BME280;54866;53.458;14.540;2023-02-12T11:50:47;102703.08;;;5.98;100.00
68077;BME280;54866;53.458;14.540;2023-02-12T11:53:21;102700.73;;;5.94;100.00
68077;BME280;54866;53.458;14.540;2023-02-12T11:55:58;102695.21;;;5.91;100.00
68077;BME280;54866;53.458;14.540;2023-02-12T11:58:28;102694.36;;;5.90;100.00
68077;BME280;54866;53.458;14.540;2023-02-12T12:01:13;102694.73;;;5.88;100.00
68077;BME280;54866;53.458;14.540;2023-02-12T12:03:52;102689.76;;;5.84;100.00
68077;BME280;54866;53.458;14.540;2023-02-12T12:06:32;102688.02;;;5.78;100.00
68077;BME280;54866;53.458;14.540;2023-02-12T12:09:09;102693.36;;;5.73;100.00
68077;BME280;54866;53.458;14.540;2023-02-12T12:11:49;102692.25;;;5.69;100.00
68077;BME280;54866;53.458;14.540;2023-02-12T12:14:25;102697.06;;;5.72;100.00
68077;BME280;54866;53.458;14.540;2023-02-12T12:17:01;102691.98;;;5.80;100.00
68077;BME280;54866;53.458;14.540;2023-02-12T12:19:57;102693.45;;;5.91;100.00
68077;BME280;54866;53.458;14.540;2023-02-12T12:22:40;102694.61;;;6.00;100.00
68077;BME280;54866;53.458;14.540;2023-02-12T12:25:19;102692.46;;;6.09;100.00
68077;BME280;54866;53.458;14.540;2023-02-12T12:27:57;102689.55;;;6.13;100.00
68077;BME280;54866;53.458;14.540;2023-02-12T12:30:47;102683.45;;;6.12;100.00
68077;BME280;54866;53.458;14.540;2023-02-12T12:33:23;102687.09;;;6.07;100.00
68077;BME280;54866;53.458;14.540;2023-02-12T12:36:11;102683.54;;;6.09;100.00
68077;BME280;54866;53.458;14.540;2023-02-12T12:38:52;102684.52;;;6.11;100.00
68077;BME280;54866;53.458;14.540;2023-02-12T12:41:37;102679.15;;;6.15;100.00
68077;BME280;54866;53.458;14.540;2023-02-12T12:44:22;102670.54;;;6.16;100.00
68077;BME280;54866;53.458;14.540;2023-02-12T12:47:05;102665.61;;;6.18;100.00
68077;BME280;54866;53.458;14.540;2023-02-12T12:49:50;102665.84;;;6.21;100.00
68077;BME280;54866;53.458;14.540;2023-02-12T12:52:36;102667.33;;;6.24;100.00
68077;BME280;54866;53.458;14.540;2023-02-12T12:55:31;102667.95;;;6.28;100.00
68077;BME280;54866;53.458;14.540;2023-02-12T12:58:10;102666.20;;;6.33;100.00
68077;BME280;54866;53.458;14.540;2023-02-12T13:00:55;102664.30;;;6.38;100.00
68077;BME280;54866;53.458;14.540;2023-02-12T13:03:43;102659.44;;;6.44;100.00
68077;BME280;54866;53.458;14.540;2023-02-12T13:06:34;102653.30;;;6.50;100.00
68077;BME280;54866;53.458;14.540;2023-02-12T13:09:35;102648.19;;;6.56;100.00
68077;BME280;54866;53.458;14.540;2023-02-12T13:12:31;102645.59;;;6.67;100.00
68077;BME280;54866;53.458;14.540;2023-02-12T13:15:07;102647.09;;;6.75;100.00
68077;BME280;54866;53.458;14.540;2023-02-12T13:17:45;102643.96;;;6.80;100.00
68077;BME280;54866;53.458;14.540;2023-02-12T13:20:25;102643.47;;;6.84;100.00